Terminal Aerodrome Forecast
Issued by NWS

Home | Current Version | Previous Version | Graphics & Text | Print | Product List | Glossary On
Versions: 1 2 3 4 5 6 7 8 9 10 11 12 13 14 15 16 17 18 19 20 21 22 23 24 25 26
000
FTUS42 KMHX 011304 AAA
TAFOAJ
TAF AMD
KOAJ 011304Z 0113/0212 10006KT P6SM SCT005 BKN020
      TEMPO 0113/0114 BKN004
     FM011500 17011G18KT P6SM BKN040
     FM020600 20007KT P6SM VCSH SCT007 BKN030
      AMD LTD TO CLD VIS AND WIND=

USA.gov is the U.S. government's official web portal to all federal, state and local government web resources and services.